Address 0x41e5d6bdf32d1acb1ab0abee083a211385591e62 4

Overview

Balance:
43.439232074242188488 MATIC
My Name Tag:
Not Available

Txn Hash Method
Block
From
To
Value [Txn Fee]
0x710e71ae5a0905784e0a7a64fe2bfc24d306abef3928c3737609714a7df11bbfExec With Sigs293659702022-11-27 14:40:1825 mins ago0x41e5d6bdf32d1acb1ab0abee083a211385591e62OUT 0x25ad59adbe00c2d80c86d01e2e05e1294da848230 MATIC0.002943567223 31.451728
0x4818af4137794db64c11d7028358f7f1b13ab81a3ae108fc15e239e360783c38Exec With Sigs R...293658392022-11-27 14:29:2135 mins ago0x41e5d6bdf32d1acb1ab0abee083a211385591e62OUT 0x25ad59adbe00c2d80c86d01e2e05e1294da848230 MATIC0.00416676 40.000000003
0x6a1a260ac9c536849aaef9b8ea69cfbb85b8159be4dfe77e0c7e28aa37522dbeExec With Sigs R...293656562022-11-27 14:14:0351 mins ago0x41e5d6bdf32d1acb1ab0abee083a211385591e62OUT 0x25ad59adbe00c2d80c86d01e2e05e1294da848230 MATIC0.00026778895 2.571210001
0x666cd9169c9b1899cd8b4595afada9b9c4d67a46812009fd3e11a398b79fb65cExec With Sigs293656032022-11-27 14:09:3755 mins ago0x41e5d6bdf32d1acb1ab0abee083a211385591e62OUT 0x25ad59adbe00c2d80c86d01e2e05e1294da848230 MATIC0.003052927413 32.62720331
0xae0a394f862a111f0ced494b4a87605ee480d973a7cd872db9ed400f632c4925Exec293655822022-11-27 14:07:5257 mins ago0x41e5d6bdf32d1acb1ab0abee083a211385591e62OUT 0x25ad59adbe00c2d80c86d01e2e05e1294da848230 MATIC0.008140236783 35.612667869
0xf0599f72c256463e4550b5ab4a1e8cab2511f1b07b7bd33fc8a18a9d5762d998Transfer293655402022-11-27 14:04:211 hr ago0x41e5d6bdf32d1acb1ab0abee083a211385591e62SELF0x41e5d6bdf32d1acb1ab0abee083a211385591e620 MATIC0.000717609375 34.171875007
0xd794321b79a8c4f59c3c00f056089bcd755844de9d18ed5b49aeb15dcdabd34eExec With Sigs293652372022-11-27 13:39:011 hr 26 mins ago0x41e5d6bdf32d1acb1ab0abee083a211385591e62OUT 0x25ad59adbe00c2d80c86d01e2e05e1294da848230 MATIC0.00286708708 30.628000001
0x385f9a21ec5dfe01cffcd20173f26dc1f5ad21287252b9471269e8c8cc44d213Exec293651812022-11-27 13:34:201 hr 30 mins ago0x41e5d6bdf32d1acb1ab0abee083a211385591e62OUT 0x25ad59adbe00c2d80c86d01e2e05e1294da848230 MATIC0.01499760346 30.38
0x993196a70d080a626c4730c5b1c241c0eb0b514d83ed4ca815fe45c232915254Exec293651632022-11-27 13:32:501 hr 32 mins ago0x41e5d6bdf32d1acb1ab0abee083a211385591e62OUT 0x25ad59adbe00c2d80c86d01e2e05e1294da848230 MATIC0.017818887226 32.022555973
0xf8b666457107f2651d6f10372d0b8abb29eb08779cffbcc359e036b556293f08Exec With Sigs R...293651072022-11-27 13:28:091 hr 37 mins ago0x41e5d6bdf32d1acb1ab0abee083a211385591e62OUT 0x25ad59adbe00c2d80c86d01e2e05e1294da848230 MATIC0.000232236633 2.229678596
0x09a093948d78d5fd4b988906f38591aa4d195fada82bfc26cd2509c53adc8e54Exec With Sigs R...293649242022-11-27 13:12:511 hr 52 mins ago0x41e5d6bdf32d1acb1ab0abee083a211385591e62OUT 0x25ad59adbe00c2d80c86d01e2e05e1294da848230 MATIC0.003299755014 31.685455434
0x0b99680c5e269046258689dc25dc77fac85e6a4806c6ea78221135302fa6197cTransfer293647232022-11-27 12:56:032 hrs 9 mins ago0x41e5d6bdf32d1acb1ab0abee083a211385591e62SELF0x41e5d6bdf32d1acb1ab0abee083a211385591e620 MATIC0.000717609375 34.171875008
0x4215ae7f952a72c7d867d9699c725e3193e21bd2af3e94aa1f0b57c3edfe1bf8Exec With Sigs R...293645582022-11-27 12:42:162 hrs 23 mins ago0x41e5d6bdf32d1acb1ab0abee083a211385591e62OUT 0x25ad59adbe00c2d80c86d01e2e05e1294da848230 MATIC0.003234226049 31.050259213
0xf023fd829d24096712a9a8a0cd52e1c1a05a9877495213f064935878ff5b4771Exec With Sigs293645062022-11-27 12:37:552 hrs 27 mins ago0x41e5d6bdf32d1acb1ab0abee083a211385591e62OUT 0x25ad59adbe00c2d80c86d01e2e05e1294da848230 MATIC0.003219913561 34.407402717
0x9c433efec4b54f01b0346331b4f9a6d8568e3a53a165235d3b29770ab69d0aafExec293644572022-11-27 12:33:492 hrs 31 mins ago0x41e5d6bdf32d1acb1ab0abee083a211385591e62OUT 0x25ad59adbe00c2d80c86d01e2e05e1294da848230 MATIC0.019174685466 38.528218925
0xd72274ee0dbe689970c3a923573764a365355d5604db1b32db5b8adbf0150f71Exec293644392022-11-27 12:32:192 hrs 33 mins ago0x41e5d6bdf32d1acb1ab0abee083a211385591e62OUT 0x25ad59adbe00c2d80c86d01e2e05e1294da848230 MATIC0.019112625497 34.347549991
0x6aa452e79e66bb3e11b5cc6bed9d03909946c95284605c00d44518def1faac99Exec With Sigs293643232022-11-27 12:22:372 hrs 42 mins ago0x41e5d6bdf32d1acb1ab0abee083a211385591e62OUT 0x25ad59adbe00c2d80c86d01e2e05e1294da848230 MATIC0.002919071972 31.186000005
0x424440d2b8c803c35fe9686873977996ecf51bee248deb00571f9dc5393e6c6cExec With Sigs R...293641932022-11-27 12:11:452 hrs 53 mins ago0x41e5d6bdf32d1acb1ab0abee083a211385591e62OUT 0x25ad59adbe00c2d80c86d01e2e05e1294da848230 MATIC0.003631186475 34.873339498
0xe6f6e9e0552eea40ebdf821223fc4b6ed5ef0a12c618c63ebd42e8d4e1db5987Exec With Sigs R...293640102022-11-27 11:56:273 hrs 8 mins ago0x41e5d6bdf32d1acb1ab0abee083a211385591e62OUT 0x25ad59adbe00c2d80c86d01e2e05e1294da848230 MATIC0.003250985708 31.220752226
0x9feee2256d7a7d948391a87c4b5b846422467cd7d29ccb836eb5ea90516415dbExec With Sigs293639142022-11-27 11:48:263 hrs 16 mins ago0x41e5d6bdf32d1acb1ab0abee083a211385591e62OUT 0x25ad59adbe00c2d80c86d01e2e05e1294da848230 MATIC0.002433988633 26.006930585
0x60b938c9b5c00a7dfff016ac69cc5bc7c721f9cec5f88df3e4ac8068c1a36c16Exec293635662022-11-27 11:19:203 hrs 45 mins ago0x41e5d6bdf32d1acb1ab0abee083a211385591e62OUT 0x25ad59adbe00c2d80c86d01e2e05e1294da848230 MATIC0.001099645574 2.22745058
0x42d92c7c503de16d9306c6e24423c638535dfcd6ce71a61adc8916c1e17d7d1dExec With Sigs293635492022-11-27 11:17:553 hrs 47 mins ago0x41e5d6bdf32d1acb1ab0abee083a211385591e62OUT 0x25ad59adbe00c2d80c86d01e2e05e1294da848230 MATIC0.000219021658 2.340225009
0xe54cc04a3feefcdf004daacb3895f46e7b84048b4d749cda32754132f3e8017fExec293633802022-11-27 11:03:474 hrs 1 min ago0x41e5d6bdf32d1acb1ab0abee083a211385591e62OUT 0x25ad59adbe00c2d80c86d01e2e05e1294da848230 MATIC0.001088928859 1.966775505
0xf3873ed4a945e7c508b820817b1fa2b0b99fd1aca80c8b47194965b849055e8cExec293633622022-11-27 11:02:174 hrs 3 mins ago0x41e5d6bdf32d1acb1ab0abee083a211385591e62OUT 0x25ad59adbe00c2d80c86d01e2e05e1294da848230 MATIC0.001373123703 2.035044223
0x6001502cbc105d3a5a1d21a9ea5996abd24237c47e352fea01117d6733056f9eExec293633202022-11-27 10:58:464 hrs 6 mins ago0x41e5d6bdf32d1acb1ab0abee083a211385591e62OUT 0x25ad59adbe00c2d80c86d01e2e05e1294da848230 MATIC0.001530613408 2.1590199
[ Download CSV Export 
Latest 4 internal transactions
Parent Txn Hash Block From To Value
0x07990cc70467a1099a02ec2593728517485155990ba2c4f2d543cda7d5b16f3d288055892022-10-25 15:16:5632 days 23 hrs ago 0xf5de760f2e916647fd766b4ad9e85ff943ce3a2b0x41e5d6bdf32d1acb1ab0abee083a211385591e620.1 MATIC
0x71402af330ffc5e50fc29ebc82dcb54fe4cc60d0ab306d073c1a46d6eab7d47c287200982022-10-20 16:10:2537 days 22 hrs ago 0xf5de760f2e916647fd766b4ad9e85ff943ce3a2b0x41e5d6bdf32d1acb1ab0abee083a211385591e620.1 MATIC
0x98636b929149864dd5fd9edbeba42f5b21a181f7ae0b20bae69cd7e6ed5a8b27286981312022-10-19 9:34:0739 days 5 hrs ago 0x7f092e65c688a509737fcd8d0998dd12208f52970x41e5d6bdf32d1acb1ab0abee083a211385591e620.2 MATIC
0x88c792ac2fdfc93fe8034aec381ef58bad0acd4a91568f68e3cc37b3b5a1b995278327482022-08-29 19:38:5889 days 19 hrs ago 0xf5de760f2e916647fd766b4ad9e85ff943ce3a2b0x41e5d6bdf32d1acb1ab0abee083a211385591e620.1 MATIC
[ Download CSV Export 
Loading

Contract Name:
0 MATIC

Compiler Version
0

Optimization Enabled:
0 MATIC

Other Settings:
-NA-
Block Transaction Gas Used Reward
Age Block Fee Address BC Fee Address Voting Power Jailed Incoming
Block Uncle Number Difficulty Gas Used Reward
Loading